Time;durP1;ratioP1;P1;durP2;ratioP2;P2;SDS_P1;SDS_P2;PMS_P1;PMS_P2;Temp;Humidity;BMP_temperature;BMP_pressure;BME280_temperature;BME280_humidity;BME280_pressure;Samples;Min_cycle;Max_cycle;Signal;HPM_P1;HPM_P2
2022/11/19 00:01:32;;;;;;;7.40;6.70;;;;;;;1.93;100.00;98581.91;1679270;82;21642;-65
2022/11/19 00:03:59;;;;;;;7.10;6.40;;;;;;;2.00;100.00;98582.62;1693945;82;21582;-65
2022/11/19 00:06:26;;;;;;;6.63;5.93;;;;;;;2.04;100.00;98569.14;1686034;84;21424;-64
2022/11/19 00:08:54;;;;;;;6.37;5.78;;;;;;;2.04;100.00;98569.14;1683161;82;22051;-64
2022/11/19 00:14:09;;;;;;;;;;;;;;;2.17;100.00;98556.68;1692908;82;21817;-64
2022/11/19 00:16:37;;;;;;;5.85;5.25;;;;;;;2.09;100.00;98550.40;1689150;82;20405;-64
2022/11/19 00:19:04;;;;;;;5.30;4.78;;;;;;;2.11;100.00;98544.30;1691194;82;21483;-64
2022/11/19 00:21:31;;;;;;;5.90;5.35;;;;;;;2.17;100.00;98541.12;1700902;83;28547;-68
2022/11/19 00:23:58;;;;;;;5.37;4.95;;;;;;;2.21;100.00;98533.69;1698325;82;21445;-65
2022/11/19 00:26:25;;;;;;;5.47;5.00;;;;;;;2.19;100.00;98529.83;1701152;82;21910;-66
2022/11/19 00:28:52;;;;;;;5.15;4.65;;;;;;;2.21;100.00;98518.97;1724176;80;21553;-65
2022/11/19 00:31:18;;;;;;;5.40;4.90;;;;;;;2.25;100.00;98513.25;1736394;80;21475;-65
2022/11/19 00:33:49;;;;;;;4.00;3.70;;;;;;;2.28;100.00;98511.86;1737997;80;21490;-65
2022/11/19 00:36:15;;;;;;;4.70;4.30;;;;;;;2.28;100.00;98511.44;1732568;80;21555;-65
2022/11/19 00:38:42;;;;;;;4.05;3.65;;;;;;;2.32;100.00;98513.05;1721001;80;21735;-65
2022/11/19 00:41:09;;;;;;;4.15;3.75;;;;;;;2.38;100.00;98520.27;1738831;80;21506;-66
2022/11/19 00:43:46;;;;;;;4.58;4.17;;;;;;;2.38;100.00;98513.33;1719792;80;21588;-66
2022/11/19 00:46:22;;;;;;;4.08;3.77;;;;;;;2.42;100.00;98512.34;1683704;82;21567;-66
2022/11/19 00:48:52;;;;;;;4.30;3.90;;;;;;;2.43;100.00;98510.59;1685497;82;21450;-66
2022/11/19 00:51:20;;;;;;;4.12;3.77;;;;;;;2.49;100.00;98504.80;1728265;80;21779;-65
2022/11/19 00:53:46;;;;;;;4.08;3.58;;;;;;;2.46;100.00;98501.43;1714714;80;21503;-65
2022/11/19 00:56:16;;;;;;;3.90;3.58;;;;;;;2.45;100.00;98494.53;1729301;80;21540;-65
2022/11/19 00:58:44;;;;;;;3.70;3.40;;;;;;;2.48;100.00;98494.00;1723601;80;21439;-66
2022/11/19 01:01:11;;;;;;;3.35;3.05;;;;;;;2.52;100.00;98480.06;1719597;80;21034;-66
2022/11/19 01:03:40;;;;;;;3.85;3.50;;;;;;;2.53;100.00;98479.16;1728862;80;21878;-65
2022/11/19 01:06:08;;;;;;;3.80;3.33;;;;;;;2.56;100.00;98480.80;1690129;82;26887;-65
2022/11/19 01:08:37;;;;;;;3.52;3.22;;;;;;;2.58;100.00;98471.67;1692312;82;21139;-66
2022/11/19 01:11:10;;;;;;;4.22;3.83;;;;;;;2.58;100.00;98464.77;1728925;80;20963;-66
2022/11/19 01:13:36;;;;;;;3.80;3.50;;;;;;;2.54;100.00;98459.23;1717393;80;20951;-66
2022/11/19 01:16:17;;;;;;;3.77;3.47;;;;;;;2.57;100.00;98460.91;1720089;80;21868;-66
2022/11/19 01:18:47;;;;;;;3.98;3.67;;;;;;;2.58;100.00;98466.48;1729859;80;21645;-66
2022/11/19 01:21:14;;;;;;;3.95;3.47;;;;;;;2.55;100.00;98448.44;1721462;80;21563;-66
2022/11/19 01:23:41;;;;;;;4.15;3.75;;;;;;;2.55;100.00;98451.88;1717296;80;21002;-66
2022/11/19 01:26:08;;;;;;;3.85;3.55;;;;;;;2.52;100.00;98447.63;1722167;79;21486;-66
2022/11/19 01:28:37;;;;;;;3.60;3.30;;;;;;;2.53;100.00;98446.72;1734123;80;21820;-66
2022/11/19 01:31:08;;;;;;;5.05;3.95;;;;;;;2.55;100.00;98445.38;1692596;83;21421;-67
2022/11/19 01:33:36;;;;;;;3.75;3.45;;;;;;;2.53;100.00;98439.39;1681283;83;21521;-66
2022/11/19 01:36:07;;;;;;;3.80;3.50;;;;;;;2.49;100.00;98436.03;1683318;83;21521;-65
2022/11/19 01:38:35;;;;;;;4.08;3.75;;;;;;;2.46;100.00;98428.33;1733110;80;20974;-65
2022/11/19 01:41:03;;;;;;;3.90;3.50;;;;;;;2.46;100.00;98430.92;1720427;80;21806;-65
2022/11/19 01:43:46;;;;;;;3.90;3.50;;;;;;;2.47;100.00;98426.15;1729049;80;21649;-65
2022/11/19 01:46:17;;;;;;;3.62;3.33;;;;;;;2.51;100.00;98416.08;1727523;80;21575;-64
2022/11/19 01:49:16;;;;;;;3.45;3.15;;;;;;;2.54;100.00;98409.94;1721081;81;21002;-65
2022/11/19 01:51:52;;;;;;;3.30;3.00;;;;;;;2.56;100.00;98408.59;1715010;81;21562;-65
2022/11/19 01:54:42;;;;;;;3.60;3.30;;;;;;;2.60;100.00;98409.77;1727346;80;21853;-65
2022/11/19 01:57:12;;;;;;;5.17;3.65;;;;;;;2.64;100.00;98407.94;1719671;80;21534;-64
2022/11/19 01:59:39;;;;;;;4.15;3.75;;;;;;;2.69;100.00;98398.24;1721089;80;21491;-64
2022/11/19 02:02:06;;;;;;;4.15;3.75;;;;;;;2.70;100.00;98394.30;1714139;81;21515;-65
2022/11/19 02:04:33;;;;;;;4.35;3.95;;;;;;;2.68;100.00;98388.31;1681232;82;21152;-64
2022/11/19 02:07:01;;;;;;;4.40;4.00;;;;;;;2.66;100.00;98386.68;1672297;83;21758;-64
2022/11/19 02:09:27;;;;;;;4.72;4.28;;;;;;;2.62;100.00;98384.63;1686566;83;21500;-66
2022/11/19 02:12:39;;;;;;;4.10;3.70;;;;;;;2.69;100.00;98374.45;1673069;83;21436;-66
2022/11/19 02:15:24;;;;;;;4.87;3.55;;;;;;;2.69;100.00;98373.58;1664649;83;21456;-65
2022/11/19 02:18:16;;;;;;;4.35;3.95;;;;;;;2.69;100.00;98376.18;1678542;83;20995;-65
2022/11/19 02:21:07;;;;;;;3.72;3.35;;;;;;;2.72;100.00;98371.75;1730221;80;21860;-65
2022/11/19 02:23:57;;;;;;;3.80;3.15;;;;;;;2.73;100.00;98369.99;1688124;82;21536;-64
2022/11/19 02:27:21;;;;;;;3.77;3.35;;;;;;;2.73;100.00;98354.42;1729318;81;21581;-65
2022/11/19 02:29:57;;;;;;;3.55;3.25;;;;;;;2.71;100.00;98357.52;1718384;80;21513;-64
2022/11/19 02:32:53;;;;;;;3.60;3.30;;;;;;;2.69;100.00;98359.31;1732196;82;21622;-63
2022/11/19 02:35:46;;;;;;;3.55;3.25;;;;;;;2.66;100.00;98360.72;1683776;82;21911;-63
2022/11/19 02:38:42;;;;;;;3.22;2.98;;;;;;;2.59;100.00;98351.42;1691853;82;21141;-63
2022/11/19 02:41:37;;;;;;;3.40;3.00;;;;;;;2.57;100.00;98358.41;1682102;84;21049;-64
2022/11/19 02:47:18;;;;;;;3.20;2.90;;;;;;;2.56;100.00;98364.02;1687175;82;21614;-63
2022/11/19 02:49:45;;;;;;;2.98;2.77;;;;;;;2.60;100.00;98368.25;1726471;80;21948;-66
2022/11/19 02:52:14;;;;;;;2.60;2.40;;;;;;;2.66;100.00;98373.70;1723059;81;21390;-64
2022/11/19 02:54:41;;;;;;;2.72;2.52;;;;;;;2.72;100.00;98377.39;1732900;80;21498;-64
2022/11/19 02:57:10;;;;;;;3.22;2.50;;;;;;;2.76;100.00;98373.80;1730566;80;21533;-64
2022/11/19 03:05:51;;;;;;;2.40;2.20;;;;;;;2.86;100.00;98371.33;1718626;81;21415;-65
2022/11/19 03:08:18;;;;;;;2.72;2.52;;;;;;;2.87;100.00;98369.58;1722413;81;21554;-64
2022/11/19 03:10:53;;;;;;;3.00;2.70;;;;;;;2.87;100.00;98361.78;1682791;82;21497;-65
2022/11/19 03:19:05;;;;;;;2.22;1.95;;;;;;;2.80;100.00;98357.22;1687166;84;21642;-64
2022/11/19 03:21:42;;;;;;;1.98;1.87;;;;;;;2.78;100.00;98347.80;1693127;83;21503;-64
2022/11/19 03:24:19;;;;;;;1.80;1.70;;;;;;;2.78;100.00;98346.50;1688142;84;21284;-64
2022/11/19 03:26:51;;;;;;;2.30;2.10;;;;;;;2.77;100.00;98343.49;1674475;82;21603;-64
2022/11/19 03:29:18;;;;;;;2.20;2.00;;;;;;;2.82;100.00;98348.09;1690252;82;22097;-65
2022/11/19 03:31:48;;;;;;;2.83;2.47;;;;;;;2.84;100.00;98345.84;1683942;82;21494;-64
2022/11/19 03:34:19;;;;;;;2.22;2.02;;;;;;;2.88;100.00;98344.00;1680604;82;21511;-64
2022/11/19 03:36:47;;;;;;;2.00;1.90;;;;;;;2.85;100.00;98341.06;1684587;83;21018;-64
2022/11/19 03:39:16;;;;;;;2.20;2.00;;;;;;;2.86;100.00;98340.17;1725836;81;21509;-64
2022/11/19 03:41:45;;;;;;;2.12;2.02;;;;;;;2.82;100.00;98330.77;1732453;80;21517;-64
2022/11/19 03:44:23;;;;;;;2.12;2.02;;;;;;;2.79;100.00;98324.82;1722613;80;21577;-64
2022/11/19 03:46:53;;;;;;;2.20;2.00;;;;;;;2.76;100.00;98315.86;1689446;82;21570;-64
2022/11/19 03:49:25;;;;;;;2.08;1.90;;;;;;;2.68;100.00;98314.34;1716214;81;21563;-65
2022/11/19 03:51:57;;;;;;;1.80;1.70;;;;;;;2.66;100.00;98310.11;1688942;82;21677;-65
2022/11/19 03:54:23;;;;;;;1.98;1.87;;;;;;;2.66;100.00;98320.04;1728465;81;21909;-65
2022/11/19 03:56:51;;;;;;;1.82;1.72;;;;;;;2.66;100.00;98317.45;1722284;81;21049;-64
2022/11/19 03:59:19;;;;;;;2.67;1.95;;;;;;;2.67;100.00;98307.45;1716317;81;21598;-64
2022/11/19 04:01:45;;;;;;;1.67;1.57;;;;;;;2.70;100.00;98300.03;1729566;80;21570;-64
2022/11/19 04:06:58;;;;;;;1.22;1.15;;;;;;;2.75;100.00;98299.44;1716091;81;21883;-65
2022/11/19 04:09:25;;;;;;;1.60;1.50;;;;;;;2.76;100.00;98295.09;1715348;80;21637;-65
2022/11/19 04:11:53;;;;;;;1.75;1.65;;;;;;;2.76;100.00;98288.59;1696909;82;21046;-65
2022/11/19 04:14:20;;;;;;;1.67;1.57;;;;;;;2.77;100.00;98279.47;1719520;80;21482;-64
2022/11/19 04:16:46;;;;;;;2.20;2.00;;;;;;;2.77;100.00;98270.38;1718297;81;21050;-64
2022/11/19 04:19:13;;;;;;;1.92;1.75;;;;;;;2.70;100.00;98261.94;1689625;82;22036;-64
2022/11/19 04:21:40;;;;;;;2.10;1.90;;;;;;;2.65;100.00;98261.23;1691426;82;21435;-64
2022/11/19 04:24:08;;;;;;;1.60;1.50;;;;;;;2.61;100.00;98254.91;1688795;82;21462;-64
2022/11/19 04:26:35;;;;;;;1.90;1.80;;;;;;;2.58;100.00;98254.57;1680718;83;21496;-64
2022/11/19 04:29:01;;;;;;;1.98;1.82;;;;;;;2.61;100.00;98261.39;1692039;82;21546;-65
2022/11/19 04:31:29;;;;;;;1.80;1.70;;;;;;;2.61;100.00;98264.83;1728773;80;21466;-65
2022/11/19 04:33:57;;;;;;;1.90;1.80;;;;;;;2.65;100.00;98275.50;1728465;80;21541;-66
2022/11/19 04:36:24;;;;;;;1.67;1.57;;;;;;;2.69;100.00;98288.81;1725313;80;21073;-65
2022/11/19 04:38:50;;;;;;;1.95;1.75;;;;;;;2.69;100.00;98299.19;1713677;80;20967;-65
2022/11/19 04:41:17;;;;;;;1.60;1.50;;;;;;;2.68;100.00;98301.83;1729658;80;21503;-65
2022/11/19 04:43:43;;;;;;;1.80;1.70;;;;;;;2.70;100.00;98311.71;1735445;81;21943;-65
2022/11/19 04:46:10;;;;;;;1.75;1.65;;;;;;;2.78;100.00;98310.16;1735754;80;20939;-65
2022/11/19 04:48:37;;;;;;;2.22;2.02;;;;;;;2.80;100.00;98310.95;1724253;81;21490;-65
2022/11/19 04:51:03;;;;;;;2.00;1.90;;;;;;;2.83;100.00;98305.67;1737621;80;21506;-65
2022/11/19 04:53:30;;;;;;;1.67;1.57;;;;;;;2.79;100.00;98304.05;1738776;80;20935;-65
2022/11/19 04:55:57;;;;;;;1.87;1.77;;;;;;;2.76;100.00;98308.06;1719245;81;21467;-65
2022/11/19 04:58:23;;;;;;;1.42;1.32;;;;;;;2.71;100.00;98310.80;1726007;81;21388;-65
2022/11/19 05:00:50;;;;;;;1.92;1.75;;;;;;;2.66;100.00;98320.04;1727780;80;21695;-65
2022/11/19 05:03:17;;;;;;;2.10;1.90;;;;;;;2.65;100.00;98319.63;1720290;80;21495;-65
2022/11/19 05:05:43;;;;;;;1.80;1.70;;;;;;;2.67;100.00;98315.23;1727882;80;21628;-60
2022/11/19 05:08:10;;;;;;;1.85;1.72;;;;;;;2.72;100.00;98325.48;1731195;80;21791;-59
2022/11/19 05:10:37;;;;;;;2.45;1.47;;;;;;;2.78;100.00;98323.14;1733401;80;21454;-63
2022/11/19 05:13:04;;;;;;;1.40;1.30;;;;;;;2.83;100.00;98318.20;1722309;80;21483;-61
2022/11/19 05:15:33;;;;;;;1.80;1.70;;;;;;;2.84;100.00;98312.09;1725003;80;21420;-60
2022/11/19 05:17:59;;;;;;;1.47;1.37;;;;;;;2.86;100.00;98314.64;1729873;81;21510;-60
2022/11/19 05:20:27;;;;;;;1.80;1.70;;;;;;;2.81;100.00;98307.48;1722285;80;21490;-60
2022/11/19 05:22:54;;;;;;;1.67;1.55;;;;;;;2.81;100.00;98311.38;1723807;80;21522;-60
2022/11/19 05:25:21;;;;;;;1.62;1.52;;;;;;;2.79;100.00;98310.12;1717498;81;21018;-59
2022/11/19 05:27:48;;;;;;;1.62;1.52;;;;;;;2.81;100.00;98312.21;1711325;81;21511;-59
2022/11/19 05:30:16;;;;;;;1.57;1.45;;;;;;;2.81;100.00;98309.61;1717169;82;20995;-58
2022/11/19 05:32:42;;;;;;;;;;;;;;;2.82;100.00;98307.41;1719273;80;21898;-59
2022/11/19 05:35:09;;;;;;;1.65;1.32;;;;;;;2.73;100.00;98316.36;1722767;80;20430;-60
2022/11/19 05:37:37;;;;;;;2.52;1.30;;;;;;;2.73;100.00;98324.14;1677806;84;20998;-59
2022/11/19 05:40:06;;;;;;;1.30;1.10;;;;;;;2.78;100.00;98331.77;1717532;80;28661;-58
2022/11/19 05:42:33;;;;;;;1.37;1.27;;;;;;;2.84;100.00;98323.77;1719806;80;21547;-59
2022/11/19 05:44:59;;;;;;;1.70;1.60;;;;;;;2.86;100.00;98337.58;1737134;80;21920;-59
2022/11/19 05:47:26;;;;;;;1.70;1.60;;;;;;;2.86;100.00;98337.58;1688221;82;21033;-59
2022/11/19 05:49:54;;;;;;;2.35;1.87;;;;;;;2.89;100.00;98332.73;1690556;83;21510;-60
2022/11/19 05:52:20;;;;;;;1.62;1.52;;;;;;;2.86;100.00;98341.48;1739177;80;21644;-59
2022/11/19 05:54:47;;;;;;;1.80;1.70;;;;;;;2.88;100.00;98342.27;1731197;81;21493;-59
2022/11/19 05:57:14;;;;;;;1.50;1.40;;;;;;;2.92;100.00;98345.63;1731189;80;22033;-60
2022/11/19 05:59:40;;;;;;;2.02;1.87;;;;;;;2.90;100.00;98341.77;1733548;80;21400;-62
2022/11/19 06:02:07;;;;;;;1.90;1.80;;;;;;;2.90;100.00;98342.20;1733472;80;21567;-63
2022/11/19 06:04:35;;;;;;;1.82;1.72;;;;;;;2.88;100.00;98340.10;1720804;81;21417;-59
2022/11/19 06:07:01;;;;;;;1.80;1.70;;;;;;;2.87;100.00;98342.31;1734889;80;20966;-61
2022/11/19 06:09:29;;;;;;;1.90;1.80;;;;;;;2.85;100.00;98350.15;1699212;83;21955;-60
2022/11/19 06:11:57;;;;;;;2.12;2.02;;;;;;;2.87;100.00;98350.95;1681542;82;21564;-60
2022/11/19 06:14:25;;;;;;;2.10;1.90;;;;;;;2.94;100.00;98355.50;1687229;83;21798;-60
2022/11/19 06:16:57;;;;;;;2.35;2.15;;;;;;;2.95;100.00;98356.34;1683036;83;21458;-59
2022/11/19 06:19:24;;;;;;;2.08;1.98;;;;;;;2.98;100.00;98366.64;1734531;80;21471;-61
2022/11/19 06:21:51;;;;;;;2.20;2.00;;;;;;;3.01;100.00;98371.72;1743791;80;21850;-61
2022/11/19 06:24:19;;;;;;;2.17;1.87;;;;;;;3.02;100.00;98379.47;1724641;81;21494;-61
2022/11/19 06:26:46;;;;;;;2.30;2.10;;;;;;;2.98;100.00;98379.63;1727599;80;21546;-60
2022/11/19 06:29:16;;;;;;;2.40;2.20;;;;;;;2.92;100.00;98383.27;1721879;80;21046;-60
2022/11/19 06:31:43;;;;;;;2.85;2.60;;;;;;;2.93;100.00;98391.44;1686481;83;21415;-60
2022/11/19 06:34:11;;;;;;;2.20;2.00;;;;;;;2.93;100.00;98388.39;1678643;84;21881;-60
2022/11/19 06:36:39;;;;;;;2.40;2.20;;;;;;;2.92;100.00;98385.86;1690030;82;21045;-59
2022/11/19 06:39:06;;;;;;;2.87;2.67;;;;;;;2.93;100.00;98394.03;1703976;82;21464;-60
2022/11/19 06:41:33;;;;;;;2.60;2.40;;;;;;;2.99;100.00;98398.19;1688731;82;21576;-61
2022/11/19 06:44:02;;;;;;;2.42;2.10;;;;;;;3.00;100.00;98394.25;1688364;82;21528;-59
2022/11/19 06:46:29;;;;;;;;;;;;;;;3.01;100.00;98394.63;1692407;82;21686;-58
2022/11/19 06:48:56;;;;;;;2.47;2.35;;;;;;;2.98;100.00;98397.34;1677809;83;20489;-58
2022/11/19 06:51:23;;;;;;;2.58;2.35;;;;;;;2.92;100.00;98406.18;1663075;83;21505;-58
2022/11/19 06:53:50;;;;;;;3.50;2.30;;;;;;;2.93;100.00;98410.91;1667644;83;21478;-58
2022/11/19 06:56:17;;;;;;;3.70;2.15;;;;;;;2.95;100.00;98406.52;1686391;83;21607;-58
2022/11/19 06:58:45;;;;;;;2.47;2.27;;;;;;;3.00;100.00;98405.94;1667623;83;22042;-57
2022/11/19 07:01:13;;;;;;;3.00;2.25;;;;;;;3.02;100.00;98407.19;1677452;83;21572;-58
2022/11/19 07:03:40;;;;;;;3.60;2.05;;;;;;;3.07;100.00;98414.36;1664130;83;21464;-59
2022/11/19 07:06:07;;;;;;;3.83;2.37;;;;;;;3.13;100.00;98415.48;1663257;84;21465;-58
2022/11/19 07:08:35;;;;;;;3.37;2.52;;;;;;;3.11;100.00;98415.53;1678594;83;21433;-57
2022/11/19 07:11:24;;;;;;;4.70;2.10;;;;;;;3.11;100.00;98407.73;1676513;83;21888;-59
2022/11/19 07:13:56;;;;;;;3.67;2.42;;;;;;;3.15;100.00;98415.45;1676976;82;21526;-60
2022/11/19 07:16:02;;;;;;;2.75;2.12;;;;;;;3.19;100.00;98420.48;1701397;82;21684;-60
2022/11/19 07:18:29;;;;;;;4.53;2.10;;;;;;;3.12;100.00;98425.00;1695350;82;21514;-60
2022/11/19 07:20:56;;;;;;;2.55;2.30;;;;;;;3.16;100.00;98439.20;1656667;83;21036;-61
2022/11/19 07:23:23;;;;;;;3.52;2.33;;;;;;;3.17;100.00;98434.42;1684373;82;21912;-60
2022/11/19 07:25:51;;;;;;;3.60;2.27;;;;;;;3.13;100.00;98440.16;1688763;82;21426;-61
2022/11/19 07:28:17;;;;;;;3.05;2.10;;;;;;;3.15;100.00;98434.92;1727937;80;20978;-62
2022/11/19 07:30:44;;;;;;;3.23;2.50;;;;;;;3.20;100.00;98437.77;1726027;80;21440;-60
2022/11/19 07:33:11;;;;;;;6.22;2.60;;;;;;;3.26;100.00;98448.42;1683733;82;21430;-60
2022/11/19 07:35:38;;;;;;;4.22;2.62;;;;;;;3.31;100.00;98444.77;1689886;84;21825;-61
2022/11/19 07:38:05;;;;;;;4.20;2.83;;;;;;;3.31;100.00;98442.60;1709421;80;21610;-61
2022/11/19 07:40:32;;;;;;;4.47;2.77;;;;;;;3.32;100.00;98448.20;1688159;82;21588;-59
2022/11/19 07:46:18;;;;;;;3.27;2.30;;;;;;;3.43;100.00;98460.41;1752996;80;21917;-60
2022/11/19 07:48:44;;;;;;;5.62;2.60;;;;;;;3.41;100.00;98460.03;1753718;80;21878;-61
2022/11/19 07:51:12;;;;;;;3.58;2.10;;;;;;;3.39;100.00;98452.73;1738138;80;21443;-61
2022/11/19 07:53:39;;;;;;;5.78;2.62;;;;;;;3.42;100.00;98450.05;1750033;80;21490;-60
2022/11/19 07:56:06;;;;;;;5.92;2.80;;;;;;;3.37;100.00;98452.81;1744258;80;21109;-61
2022/11/19 07:58:32;;;;;;;4.07;2.53;;;;;;;3.29;100.00;98458.69;1742212;80;21050;-60
2022/11/19 08:01:10;;;;;;;3.45;2.77;;;;;;;3.31;100.00;98468.58;1740305;80;21779;-61
2022/11/19 08:03:37;;;;;;;5.47;2.90;;;;;;;3.39;100.00;98472.23;1746412;80;21593;-60
2022/11/19 08:06:05;;;;;;;4.15;2.83;;;;;;;3.48;100.00;98483.20;1740947;80;21724;-61
2022/11/19 08:08:32;;;;;;;5.50;2.75;;;;;;;3.51;100.00;98481.78;1742341;80;21493;-62
2022/11/19 08:11:06;;;;;;;7.22;2.83;;;;;;;3.55;100.00;98482.53;1740385;80;21458;-61
2022/11/19 08:13:33;;;;;;;3.95;2.70;;;;;;;3.63;100.00;98488.78;1743499;80;21929;-66
2022/11/19 08:16:02;;;;;;;2.75;2.40;;;;;;;3.64;100.00;98495.23;1740797;81;21482;-61
2022/11/19 08:18:30;;;;;;;2.70;2.47;;;;;;;3.62;100.00;98497.49;1740078;80;21549;-60
2022/11/19 08:21:08;;;;;;;4.83;2.75;;;;;;;3.64;100.00;98506.09;1749909;80;21547;-61
2022/11/19 08:23:37;;;;;;;3.12;2.30;;;;;;;3.64;100.00;98509.53;1750822;80;21503;-61
2022/11/19 08:26:06;;;;;;;4.12;2.83;;;;;;;3.63;100.00;98512.17;1751160;80;21688;-59
2022/11/19 08:28:33;;;;;;;3.52;3.20;;;;;;;3.61;100.00;98520.47;1745310;81;21530;-60
2022/11/19 08:31:08;;;;;;;4.42;3.17;;;;;;;3.63;100.00;98526.02;1750938;81;21549;-60
2022/11/19 08:33:36;;;;;;;4.47;2.92;;;;;;;3.57;100.00;98527.52;1750225;80;21585;-60
2022/11/19 08:36:03;;;;;;;4.87;3.27;;;;;;;3.57;100.00;98534.02;1743311;80;20951;-60
2022/11/19 08:38:30;;;;;;;6.47;4.08;;;;;;;3.57;100.00;98544.87;1692010;83;21608;-60
2022/11/19 08:43:44;;;;;;;4.22;3.30;;;;;;;3.67;100.00;98561.44;1737851;80;21605;-60
2022/11/19 08:46:11;;;;;;;4.12;3.72;;;;;;;3.68;100.00;98561.81;1741963;80;21028;-59
2022/11/19 08:48:38;;;;;;;5.67;3.70;;;;;;;3.72;100.00;98564.33;1749394;80;21025;-59
2022/11/19 08:51:05;;;;;;;3.65;3.20;;;;;;;3.76;100.00;98570.66;1753623;80;22123;-60
2022/11/19 08:53:32;;;;;;;5.80;4.08;;;;;;;3.77;100.00;98571.08;1765219;80;25932;-59
2022/11/19 08:55:59;;;;;;;4.97;4.47;;;;;;;3.81;100.00;98578.34;1760174;80;21596;-59
2022/11/19 08:58:25;;;;;;;5.22;4.42;;;;;;;3.86;100.00;98583.79;1758579;80;21533;-60
2022/11/19 09:00:52;;;;;;;3.87;3.55;;;;;;;3.94;100.00;98586.56;1767584;80;21485;-58
2022/11/19 09:03:19;;;;;;;3.92;3.52;;;;;;;4.01;100.00;98586.34;1759861;80;21834;-58
2022/11/19 09:05:46;;;;;;;5.62;4.47;;;;;;;3.99;100.00;98584.21;1755006;80;21054;-58
2022/11/19 09:08:13;;;;;;;6.33;3.37;;;;;;;4.00;100.00;98588.98;1760515;80;21577;-59
2022/11/19 09:10:39;;;;;;;4.75;3.90;;;;;;;4.06;100.00;98595.28;1756873;80;21548;-60
2022/11/19 09:13:08;;;;;;;5.15;4.33;;;;;;;4.12;100.00;98596.37;1748692;80;21543;-61
2022/11/19 09:15:34;;;;;;;4.80;4.40;;;;;;;4.18;100.00;98607.89;1744061;80;21824;-60
2022/11/19 09:18:01;;;;;;;6.42;4.85;;;;;;;4.23;100.00;98609.87;1751077;80;21053;-60
2022/11/19 09:20:28;;;;;;;5.60;4.75;;;;;;;4.24;100.00;98606.37;1751830;80;21601;-61
2022/11/19 09:22:54;;;;;;;8.13;4.58;;;;;;;4.20;100.00;98606.52;1719922;82;21534;-59
2022/11/19 09:25:23;;;;;;;5.28;4.78;;;;;;;4.14;100.00;98612.77;1747485;80;21537;-59
2022/11/19 09:27:49;;;;;;;4.78;4.28;;;;;;;4.17;100.00;98611.84;1754381;80;22064;-60
2022/11/19 09:30:17;;;;;;;6.50;5.08;;;;;;;4.16;100.00;98623.98;1745867;80;21545;-60
2022/11/19 09:32:44;;;;;;;8.53;6.45;;;;;;;4.18;100.00;98628.70;1753434;80;21026;-60
2022/11/19 09:35:11;;;;;;;9.03;6.50;;;;;;;4.20;100.00;98631.23;1755909;80;21038;-59
2022/11/19 09:37:37;;;;;;;9.13;6.35;;;;;;;3.83;100.00;98579.97;1758819;80;21560;-59
2022/11/19 09:40:07;;;;;;;7.03;5.92;;;;;;;4.15;100.00;98646.17;1756335;80;21927;-60
2022/11/19 09:43:07;;;;;;;6.20;5.60;;;;;;;4.15;100.00;98650.07;1747912;80;21473;-60
2022/11/19 09:45:48;;;;;;;5.40;4.72;;;;;;;4.09;100.00;98644.62;1748510;80;21529;-64
2022/11/19 09:48:33;;;;;;;5.15;4.65;;;;;;;4.00;100.00;98651.41;1733091;80;21113;-63
2022/11/19 09:51:16;;;;;;;4.87;4.47;;;;;;;3.95;100.00;98652.00;1731248;81;21521;-60
2022/11/19 09:53:51;;;;;;;5.08;4.58;;;;;;;3.94;100.00;98643.78;1735689;81;21825;-60
2022/11/19 09:56:29;;;;;;;4.87;4.45;;;;;;;3.97;100.00;98643.70;1740513;80;21534;-60
2022/11/19 09:58:56;;;;;;;5.33;4.83;;;;;;;4.02;100.00;98641.80;1732867;81;21526;-61
2022/11/19 10:01:24;;;;;;;4.92;4.42;;;;;;;4.01;100.00;98651.80;1747311;80;21444;-62
2022/11/19 10:03:52;;;;;;;5.03;4.58;;;;;;;3.96;100.00;98648.52;1680579;84;21011;-61
2022/11/19 10:06:24;;;;;;;5.67;5.17;;;;;;;3.99;100.00;98668.75;1743021;80;21885;-61
2022/11/19 10:09:19;;;;;;;4.92;4.42;;;;;;;3.89;100.00;98666.89;1747301;81;21424;-61
2022/11/19 10:12:03;;;;;;;5.47;4.85;;;;;;;3.89;100.00;98674.69;1745368;80;21510;-61
2022/11/19 10:14:54;;;;;;;4.83;4.42;;;;;;;3.81;100.00;98673.25;1731764;80;21470;-61
2022/11/19 10:17:58;;;;;;;4.45;4.05;;;;;;;3.81;100.00;98679.29;1746269;80;21447;-61
2022/11/19 10:20:49;;;;;;;4.83;4.40;;;;;;;3.71;100.00;98684.34;1702177;80;21607;-60
2022/11/19 10:23:28;;;;;;;5.67;5.08;;;;;;;3.74;100.00;98682.97;1732973;80;21490;-62
2022/11/19 10:26:03;;;;;;;5.50;4.87;;;;;;;3.81;100.00;98677.98;1739782;80;21632;-61
2022/11/19 10:28:31;;;;;;;6.65;5.20;;;;;;;3.90;100.00;98687.27;1743517;80;21510;-60
2022/11/19 10:31:17;;;;;;;5.95;5.35;;;;;;;3.87;100.00;98694.69;1738313;80;21049;-60
2022/11/19 10:33:52;;;;;;;7.70;5.75;;;;;;;3.91;100.00;98703.25;1686751;83;21864;-60
2022/11/19 10:36:30;;;;;;;6.15;5.40;;;;;;;3.89;100.00;98699.40;1745009;80;21095;-61
2022/11/19 10:39:11;;;;;;;6.25;5.53;;;;;;;3.81;100.00;98703.99;1741152;81;22092;-62
2022/11/19 10:41:58;;;;;;;5.75;5.17;;;;;;;3.73;100.00;98711.19;1732259;80;21553;-63
2022/11/19 10:44:42;;;;;;;5.33;4.92;;;;;;;3.68;100.00;98723.45;1699372;82;21977;-62
2022/11/19 10:47:17;;;;;;;5.83;5.20;;;;;;;3.63;100.00;98733.97;1745635;80;21808;-62
2022/11/19 10:49:44;;;;;;;4.80;4.22;;;;;;;3.62;100.00;98742.69;1746631;81;21554;-62
2022/11/19 10:52:33;;;;;;;5.40;4.90;;;;;;;3.61;100.00;98750.52;1747945;80;21530;-62
2022/11/19 10:55:04;;;;;;;5.50;5.00;;;;;;;3.53;100.00;98751.20;1752694;80;26946;-62
2022/11/19 10:59:18;;;;;;;5.50;4.75;;;;;;;3.01;100.00;98762.55;1787077;78;23223;-63
2022/11/19 11:01:53;;;;;;;6.33;5.33;;;;;;;3.34;100.00;98777.70;1754296;80;21578;-63
2022/11/19 11:04:27;;;;;;;6.65;5.12;;;;;;;3.36;100.00;98793.25;1762291;79;21494;-64
2022/11/19 11:07:00;;;;;;;5.50;5.00;;;;;;;3.29;100.00;98802.94;1759096;79;21539;-63
2022/11/19 11:09:41;;;;;;;5.00;4.50;;;;;;;3.18;100.00;98806.27;1756448;79;21567;-64
2022/11/19 11:15:22;;;;;;;5.25;4.75;;;;;;;3.10;100.00;98809.91;1757917;79;21506;-62
2022/11/19 11:18:04;;;;;;;4.40;4.00;;;;;;;3.14;100.00;98824.12;1760089;80;21820;-63
2022/11/19 11:20:31;;;;;;;6.37;4.75;;;;;;;3.00;100.00;98821.44;1759010;80;20958;-63
2022/11/19 11:23:25;;;;;;;7.65;5.92;;;;;;;2.98;100.00;98816.73;1759382;80;21604;-62
2022/11/19 11:25:57;;;;;;;5.87;4.65;;;;;;;3.06;100.00;98814.78;1707737;82;21561;-64
2022/11/19 11:28:24;;;;;;;7.00;5.12;;;;;;;3.16;100.00;98815.39;1707607;81;21549;-65
2022/11/19 11:31:02;;;;;;;5.47;4.97;;;;;;;3.10;100.00;98834.59;1699226;82;21923;-61
2022/11/19 11:33:39;;;;;;;5.87;5.22;;;;;;;3.14;100.00;98847.52;1717844;82;21549;-61
2022/11/19 11:36:12;;;;;;;4.97;4.47;;;;;;;3.08;100.00;98850.66;1698089;81;21533;-60
2022/11/19 11:38:43;;;;;;;4.10;3.72;;;;;;;3.01;100.00;98862.54;1690293;83;21545;-60
2022/11/19 11:41:13;;;;;;;4.87;4.40;;;;;;;3.01;100.00;98867.73;1710223;82;21503;-63
2022/11/19 11:44:00;;;;;;;6.67;5.35;;;;;;;2.82;100.00;98883.75;1720223;81;21850;-63
2022/11/19 11:46:11;;;;;;;5.72;5.20;;;;;;;2.75;100.00;98899.50;1709433;82;21509;-64
2022/11/19 11:48:46;;;;;;;4.78;4.37;;;;;;;2.75;100.00;98909.89;1719595;81;21628;-64
2022/11/19 11:51:27;;;;;;;5.00;4.50;;;;;;;2.65;100.00;98915.73;1687208;83;21443;-62
2022/11/19 11:54:05;;;;;;;5.03;4.62;;;;;;;2.63;100.00;98918.36;1709671;82;20994;-63
2022/11/19 11:56:33;;;;;;;5.08;4.33;;;;;;;2.56;100.00;98915.48;1706264;82;21929;-61
2022/11/19 11:59:23;;;;;;;4.53;4.12;;;;;;;2.57;100.00;98924.15;1700072;82;21595;-59
2022/11/19 12:01:56;;;;;;;4.35;3.95;;;;;;;2.58;100.00;98929.31;1726021;80;21566;-60
2022/11/19 12:04:23;;;;;;;5.00;4.60;;;;;;;2.65;100.00;98943.84;1746205;80;21413;-60
2022/11/19 12:07:13;;;;;;;4.92;4.47;;;;;;;2.68;100.00;98941.19;1749704;80;21600;-60
2022/11/19 12:10:10;;;;;;;5.50;5.00;;;;;;;2.66;100.00;98940.38;1686288;82;22431;-60
2022/11/19 12:12:52;;;;;;;16.50;13.98;;;;;;;2.69;100.00;98952.00;1697561;80;21065;-60
2022/11/19 12:15:43;;;;;;;7.17;6.42;;;;;;;2.73;100.00;98956.64;1746546;80;21677;-60
2022/11/19 12:18:38;;;;;;;6.15;5.58;;;;;;;2.70;100.00;98973.16;1717850;80;20954;-60
2022/11/19 12:21:27;;;;;;;5.40;4.60;;;;;;;2.65;100.00;98985.38;1749002;80;21549;-60
2022/11/19 12:24:17;;;;;;;5.08;4.58;;;;;;;2.63;100.00;98997.98;1747344;80;21840;-60
2022/11/19 12:26:56;;;;;;;5.10;4.60;;;;;;;2.50;100.00;99004.70;1759226;80;21482;-60